Pagrindinis puslapis
METAR-TAF:

METAR-TAF

Oro uostai :

Pirassununga, San Paulas, Brazilija

platuma: 21-59S, ilguma: 047-20W, Aukštis: 597 m

Dabartinis oras

Ataskaita buvo paskelbta 1 valandą ir 4 minutes, ne 20:00 UTC
Vėjas 4 kt iš Rytų/Šiaurės Rytų
Temperatūra 29°C
Drėgmė 52%
Slėgis 1016 hPa
Matomumas 10 km arba daugiau
Mažai debesys ne aukštis 4500 ft
Išsisklaidę debesys ne aukštis 10000 ft

METAR: SBYS 152000Z 07004KT 9999 FEW045 SCT100 29/18 Q1016

Laikas: 18:04 (21:04 UTC)

Prognozė

Ataskaita buvo paskelbta 5 valandos ir 4 minutes, ne 16:00 UTC
Prognozė galioja nuo 15 metu 18 UTC su 16 metu 06 UTC
Vėjas 10 kt iš Šiaurės Rytų
Matomumas 10 km arba daugiau
Išsisklaidę debesys ne aukštis 4500 ft
Tapsmas
nuo 15 metu 22 UTC su 15 metu 24 UTC
Vėjas 5 kt iš Pietų
Matomumas 10 km arba daugiau
nėra debesų žemiau 1500 m ir nėra kamuolinių lietaus debesų

TAF: SBYS 151600Z 1518/1606 05010KT 9999 SCT045 TX29/1518Z TN17/1606Z BECMG 1522/1524 18005KT CAVOK RMK PEH

Orai ataskaitas ir orų prognozės (METAR, TAF).

turimą stotys yra geltonos ir raudonos taškus žemėlapyje.

Perkelti pele per norėdami pamatyti stoties vardą.

Tada spustelėkite, norėdami matyti oro stebėjimo ir prognozės.

Norėdami pakeisti žemėlapį: spustelėkite ant žalios mygtukų su juodo kryžiaus žemyn,; žalią mygtuką su brūkšneliu, jei norite nutolinti; arba žalių rodyklių gretimoms žemėlapius.


METAR-TAF: